createdAt,value
2017-05-08T00:00:38.441Z,77.50
2017-05-08T00:03:05.445Z,78.70
2017-05-08T00:05:32.540Z,79.50
2017-05-08T00:07:59.560Z,78.60
2017-05-08T00:10:26.942Z,78.90
2017-05-08T00:12:53.958Z,79.30
2017-05-08T00:15:21.000Z,79.80
2017-05-08T00:17:48.007Z,80.30
2017-05-08T00:20:15.755Z,80.10
2017-05-08T00:22:43.108Z,80.40
2017-05-08T00:25:10.864Z,80.70
2017-05-08T00:27:37.913Z,80.60
2017-05-08T00:30:04.949Z,80.70
2017-05-08T00:32:31.939Z,80.80
2017-05-08T00:35:00.068Z,81.60
2017-05-08T00:37:27.088Z,80.90
2017-05-08T00:39:54.122Z,80.80
2017-05-08T00:42:21.153Z,81.00
2017-05-08T00:44:48.903Z,81.40
2017-05-08T00:47:16.242Z,82.20
2017-05-08T00:49:43.275Z,82.20
2017-05-08T00:52:10.282Z,82.50
2017-05-08T00:54:37.300Z,82.30
2017-05-08T00:57:04.275Z,81.70
2017-05-08T00:59:31.704Z,81.20
2017-05-08T01:01:58.956Z,81.40
2017-05-08T01:04:25.946Z,80.70
2017-05-08T01:06:52.944Z,81.50
2017-05-08T01:09:19.976Z,80.40
2017-05-08T01:11:46.986Z,81.30
2017-05-08T01:14:14.402Z,81.10
2017-05-08T01:16:42.267Z,81.00
2017-05-08T01:19:09.286Z,81.50
2017-05-08T01:21:36.793Z,81.10
2017-05-08T01:24:03.953Z,80.90
2017-05-08T01:26:32.147Z,80.10
2017-05-08T01:28:59.151Z,81.10
2017-05-08T01:31:26.145Z,81.30
2017-05-08T01:33:53.845Z,80.80
2017-05-08T01:36:20.887Z,79.40
2017-05-08T01:38:47.918Z,79.40
2017-05-08T01:41:14.969Z,79.70
2017-05-08T01:43:42.348Z,79.20
2017-05-08T01:46:09.356Z,78.90
2017-05-08T01:48:36.397Z,79.80
2017-05-08T01:51:03.443Z,79.90
2017-05-08T01:53:30.540Z,80.60
2017-05-08T01:55:58.543Z,80.70
2017-05-08T01:58:26.316Z,80.40
2017-05-08T02:00:54.084Z,80.40
2017-05-08T02:03:21.080Z,80.30
2017-05-08T02:05:48.439Z,80.00
2017-05-08T02:08:16.500Z,80.60
2017-05-08T02:10:43.564Z,80.60
2017-05-08T02:13:10.569Z,80.50
2017-05-08T02:15:37.646Z,80.10
2017-05-08T02:18:04.626Z,80.10
2017-05-08T02:20:32.775Z,80.40
2017-05-08T02:22:59.784Z,80.30
2017-05-08T02:25:26.797Z,80.90
2017-05-08T02:27:54.561Z,80.50
2017-05-08T02:30:22.325Z,80.70
2017-05-08T02:32:50.373Z,81.00
2017-05-08T02:35:17.420Z,80.70
2017-05-08T02:37:44.438Z,80.50
2017-05-08T02:40:11.472Z,80.70
2017-05-08T02:42:38.482Z,80.40
2017-05-08T02:45:06.507Z,80.10
2017-05-08T02:47:33.518Z,80.40
2017-05-08T02:50:01.267Z,80.00
2017-05-08T02:52:29.008Z,79.60
2017-05-08T02:54:55.986Z,79.50
2017-05-08T02:57:24.126Z,79.50
2017-05-08T02:59:51.113Z,79.00
2017-05-08T03:02:18.826Z,79.30
2017-05-08T03:04:45.854Z,79.10
2017-05-08T03:07:12.844Z,79.10
2017-05-08T03:09:40.990Z,79.20
2017-05-08T03:12:08.016Z,78.40
2017-05-08T03:14:35.043Z,78.90
2017-05-08T03:17:02.059Z,79.70
2017-05-08T03:19:29.047Z,79.80
2017-05-08T03:21:56.432Z,80.00
2017-05-08T03:24:23.451Z,79.30
2017-05-08T03:26:50.492Z,78.80
2017-05-08T03:29:17.504Z,78.80
2017-05-08T03:31:44.643Z,79.20
2017-05-08T03:34:11.984Z,79.50
2017-05-08T03:36:38.969Z,79.60
2017-05-08T03:39:06.812Z,79.10
2017-05-08T03:41:33.837Z,79.40
2017-05-08T03:44:00.852Z,80.20
2017-05-08T03:46:28.271Z,80.90
2017-05-08T03:48:55.272Z,80.60
2017-05-08T03:51:22.290Z,80.90
2017-05-08T03:53:50.028Z,80.90
2017-05-08T03:56:17.792Z,81.30
2017-05-08T03:58:45.944Z,81.20
2017-05-08T04:01:12.972Z,81.20
2017-05-08T04:03:40.037Z,81.60
2017-05-08T04:06:07.102Z,81.70
2017-05-08T04:08:34.880Z,81.80
2017-05-08T04:11:02.218Z,82.10
2017-05-08T04:13:29.242Z,81.60
2017-05-08T04:15:56.273Z,81.70
2017-05-08T04:18:23.312Z,82.00
2017-05-08T04:20:50.320Z,83.10
2017-05-08T04:23:17.657Z,82.30
2017-05-08T04:25:44.699Z,82.00
2017-05-08T04:28:11.712Z,82.10
2017-05-08T04:30:39.003Z,82.30
2017-05-08T04:33:06.038Z,82.80
2017-05-08T04:35:33.049Z,83.00
2017-05-08T04:38:01.092Z,82.00
2017-05-08T04:40:28.888Z,82.80
2017-05-08T04:42:56.644Z,83.00
2017-05-08T04:45:23.706Z,82.70
2017-05-08T04:47:50.716Z,83.00
2017-05-08T04:50:18.167Z,82.40
2017-05-08T04:52:45.213Z,82.10
2017-05-08T04:55:12.209Z,81.80
2017-05-08T04:57:39.264Z,82.00
2017-05-08T05:00:06.296Z,82.10
2017-05-08T05:02:34.410Z,82.20
2017-05-08T05:05:01.453Z,81.70
2017-05-08T05:07:28.448Z,81.50
2017-05-08T05:09:56.206Z,81.70
2017-05-08T05:12:23.972Z,81.80
2017-05-08T05:14:52.117Z,81.40
2017-05-08T05:17:19.119Z,81.20
2017-05-08T05:19:46.136Z,81.50
2017-05-08T05:22:13.937Z,81.40
2017-05-08T05:24:40.948Z,81.20
2017-05-08T05:27:08.397Z,81.40
2017-05-08T05:29:35.419Z,82.40
2017-05-08T05:32:02.430Z,82.00
2017-05-08T05:34:29.477Z,82.40
2017-05-08T05:36:56.702Z,82.60
2017-05-08T05:39:23.756Z,82.60
2017-05-08T05:41:51.545Z,83.20
2017-05-08T05:44:18.892Z,83.30
2017-05-08T05:46:45.945Z,82.50
2017-05-08T05:49:12.959Z,82.30
2017-05-08T05:51:40.756Z,82.10
2017-05-08T05:54:07.780Z,82.10
2017-05-08T05:56:37.095Z,82.20
2017-05-08T05:59:07.309Z,82.50
2017-05-08T06:01:35.100Z,82.90
2017-05-08T06:04:02.305Z,83.50
2017-05-08T06:06:29.400Z,83.70
2017-05-08T06:08:56.802Z,83.50
2017-05-08T06:11:23.817Z,83.20
2017-05-08T06:13:51.476Z,83.40
2017-05-08T06:16:18.524Z,83.30
2017-05-08T06:18:45.551Z,83.40
2017-05-08T06:21:12.952Z,84.10
2017-05-08T06:23:39.935Z,84.00
2017-05-08T06:26:07.700Z,84.50
2017-05-08T06:28:35.532Z,84.60
2017-05-08T06:31:02.532Z,84.70
2017-05-08T06:33:30.581Z,84.00
2017-05-08T06:35:58.341Z,85.10
2017-05-08T06:38:26.123Z,86.10
2017-05-08T06:40:53.183Z,87.30
2017-05-08T06:43:20.206Z,87.80
2017-05-08T06:45:48.256Z,87.40
2017-05-08T06:48:15.293Z,87.40
2017-05-08T06:50:42.321Z,88.20
2017-05-08T06:53:09.372Z,88.80
2017-05-08T06:55:36.439Z,88.90
2017-05-08T06:58:03.825Z,88.80
2017-05-08T07:00:31.589Z,89.00
2017-05-08T07:02:59.348Z,89.40
2017-05-08T07:05:27.117Z,89.50
2017-05-08T07:07:54.129Z,90.00
2017-05-08T07:10:21.520Z,90.00
2017-05-08T07:12:48.561Z,90.10
2017-05-08T07:15:15.580Z,90.20
2017-05-08T07:17:42.615Z,90.20
2017-05-08T07:20:09.648Z,89.50
2017-05-08T07:22:37.039Z,90.20
2017-05-08T07:25:04.057Z,90.10
2017-05-08T07:27:31.092Z,90.00
2017-05-08T07:29:58.149Z,90.30
2017-05-08T07:32:25.144Z,90.60
2017-05-08T07:34:52.492Z,90.90
2017-05-08T07:37:19.488Z,90.40
2017-05-08T07:39:46.516Z,90.60
2017-05-08T07:42:14.298Z,90.60
2017-05-08T07:44:41.399Z,90.80
2017-05-08T07:47:08.440Z,90.60
2017-05-08T07:49:35.820Z,90.80
2017-05-08T07:52:02.835Z,90.90
2017-05-08T07:54:30.008Z,91.20
2017-05-08T07:56:57.289Z,91.30
2017-05-08T07:59:24.365Z,91.60
2017-05-08T08:01:51.749Z,91.60
2017-05-08T08:04:18.746Z,91.60
2017-05-08T08:06:46.497Z,91.40
2017-05-08T08:09:14.254Z,91.40
2017-05-08T08:11:41.241Z,91.10
2017-05-08T08:14:08.572Z,90.90
2017-05-08T08:16:35.608Z,90.60
2017-05-08T08:19:02.665Z,89.30
2017-05-08T08:21:29.729Z,89.50
2017-05-08T08:23:56.781Z,89.50
2017-05-08T08:26:24.215Z,89.60
2017-05-08T08:28:51.263Z,90.30
2017-05-08T08:31:19.001Z,90.40
2017-05-08T08:33:46.028Z,90.50
2017-05-08T08:36:13.005Z,90.00
2017-05-08T08:38:40.344Z,90.60
2017-05-08T08:41:07.397Z,90.10
2017-05-08T08:43:34.422Z,90.00
2017-05-08T08:46:01.506Z,89.80
2017-05-08T08:48:29.299Z,89.20
2017-05-08T08:50:56.631Z,89.10
2017-05-08T08:53:24.386Z,89.70
2017-05-08T08:55:51.431Z,89.60
2017-05-08T08:58:18.476Z,89.60
2017-05-08T09:00:45.482Z,89.10
2017-05-08T09:03:12.863Z,87.00
2017-05-08T09:05:39.901Z,87.50
2017-05-08T09:08:06.960Z,86.70
2017-05-08T09:10:33.993Z,87.30
2017-05-08T09:13:01.015Z,85.90
2017-05-08T09:15:28.324Z,87.00
2017-05-08T09:17:55.342Z,86.10
2017-05-08T09:20:29.691Z,85.40
2017-05-08T09:22:56.712Z,85.10
2017-05-08T09:25:23.787Z,84.30
2017-05-08T09:27:50.824Z,84.10
2017-05-08T09:30:17.887Z,82.50
2017-05-08T09:32:46.079Z,83.40
2017-05-08T09:35:13.836Z,84.10
2017-05-08T09:37:41.576Z,81.70
2017-05-08T09:40:08.644Z,82.10
2017-05-08T09:42:35.646Z,80.90
2017-05-08T09:45:03.039Z,80.20
2017-05-08T09:47:30.063Z,78.80
2017-05-08T09:49:57.048Z,77.40
2017-05-08T09:52:24.089Z,77.90
2017-05-08T09:54:51.855Z,76.30
2017-05-08T09:57:19.918Z,77.80
2017-05-08T09:59:47.674Z,75.20
2017-05-08T10:02:14.720Z,74.50
2017-05-08T10:04:41.818Z,73.80
2017-05-08T10:07:08.926Z,74.20
2017-05-08T10:09:36.269Z,74.30
2017-05-08T10:12:03.278Z,71.80
2017-05-08T10:14:30.319Z,72.70
2017-05-08T10:16:57.375Z,72.70
2017-05-08T10:19:24.392Z,71.70
2017-05-08T10:21:51.717Z,73.00
2017-05-08T10:24:18.732Z,71.90
2017-05-08T10:26:45.919Z,71.40
2017-05-08T10:29:12.945Z,70.90
2017-05-08T10:31:39.949Z,71.80
2017-05-08T10:34:08.094Z,71.20
2017-05-08T10:36:35.905Z,73.80
2017-05-08T10:39:02.967Z,72.60
2017-05-08T10:41:29.989Z,71.30
2017-05-08T10:43:57.036Z,71.90
2017-05-08T10:46:24.450Z,71.60
2017-05-08T10:48:51.489Z,70.60
2017-05-08T10:51:18.531Z,70.60
2017-05-08T10:53:45.572Z,69.40
2017-05-08T10:56:12.653Z,68.70
2017-05-08T10:58:40.002Z,69.40
2017-05-08T11:01:07.778Z,68.90
2017-05-08T11:03:34.809Z,68.10
2017-05-08T11:06:02.273Z,68.70
2017-05-08T11:08:29.291Z,69.30
2017-05-08T11:10:56.362Z,68.70
2017-05-08T11:13:29.440Z,69.10
2017-05-08T11:15:56.472Z,70.10
2017-05-08T11:18:23.772Z,69.90
2017-05-08T11:20:51.544Z,71.20
2017-05-08T11:23:19.695Z,71.30
2017-05-08T11:25:46.845Z,72.70
2017-05-08T11:28:13.907Z,70.80
2017-05-08T11:30:41.676Z,70.40
2017-05-08T11:33:09.516Z,69.20
2017-05-08T11:35:36.876Z,69.40
2017-05-08T11:38:03.900Z,70.00
2017-05-08T11:40:30.922Z,69.80
2017-05-08T11:42:57.957Z,70.10
2017-05-08T11:45:25.000Z,70.40
2017-05-08T11:47:52.424Z,71.10
2017-05-08T11:50:19.500Z,71.40
2017-05-08T11:52:46.551Z,72.00
2017-05-08T11:55:13.613Z,72.30
2017-05-08T11:57:40.639Z,68.50
2017-05-08T12:00:08.800Z,67.60
2017-05-08T12:02:36.567Z,66.60
2017-05-08T12:05:03.606Z,66.60
2017-05-08T12:07:30.663Z,64.50
2017-05-08T12:09:58.444Z,64.20
2017-05-08T12:12:25.877Z,62.30
2017-05-08T12:14:53.643Z,62.00
2017-05-08T12:17:21.406Z,62.30
2017-05-08T12:19:48.442Z,60.40
2017-05-08T12:22:15.442Z,59.60
2017-05-08T12:24:42.738Z,58.90
2017-05-08T12:27:09.781Z,58.20
2017-05-08T12:29:36.799Z,56.80
2017-05-08T12:32:03.877Z,57.30
2017-05-08T12:34:30.881Z,57.50
2017-05-08T12:36:58.213Z,55.70
2017-05-08T12:39:25.253Z,54.70
2017-05-08T12:41:53.016Z,55.20
2017-05-08T12:44:20.805Z,56.70
2017-05-08T12:46:47.828Z,58.10
2017-05-08T12:49:15.168Z,59.10
2017-05-08T12:51:42.192Z,60.00
2017-05-08T12:54:09.211Z,59.60
2017-05-08T12:56:36.233Z,59.10
2017-05-08T12:59:03.992Z,60.00
2017-05-08T13:01:32.164Z,61.30
2017-05-08T13:03:59.948Z,60.80
2017-05-08T13:06:27.696Z,60.40
2017-05-08T13:08:55.489Z,59.80
2017-05-08T13:11:22.567Z,59.30
2017-05-08T13:13:49.869Z,59.10
2017-05-08T13:16:17.616Z,59.80
2017-05-08T13:18:44.613Z,59.80
2017-05-08T13:21:11.683Z,57.60
2017-05-08T13:23:38.682Z,57.80
2017-05-08T13:26:06.814Z,58.00
2017-05-08T13:28:33.839Z,58.90
2017-05-08T13:31:00.890Z,58.20
2017-05-08T13:33:27.939Z,58.60
2017-05-08T13:35:54.963Z,58.10
2017-05-08T13:38:22.363Z,57.20
2017-05-08T13:40:49.377Z,57.80
2017-05-08T13:43:16.369Z,57.70
2017-05-08T13:45:44.159Z,58.30
2017-05-08T13:48:11.207Z,57.50
2017-05-08T13:50:38.553Z,57.80
2017-05-08T13:53:06.321Z,56.10
2017-05-08T13:55:34.173Z,56.10
2017-05-08T13:58:01.189Z,57.60
2017-05-08T14:00:28.225Z,58.30
2017-05-08T14:02:55.622Z,57.40
2017-05-08T14:05:23.414Z,57.00
2017-05-08T14:07:51.183Z,57.00
2017-05-08T14:10:18.200Z,57.50
2017-05-08T14:12:45.300Z,56.30
2017-05-08T14:15:12.703Z,56.70
2017-05-08T14:17:39.728Z,56.30
2017-05-08T14:20:06.731Z,55.80
2017-05-08T14:22:34.853Z,55.20
2017-05-08T14:25:01.888Z,54.50
2017-05-08T14:27:28.968Z,54.90
2017-05-08T14:29:56.009Z,54.30
2017-05-08T14:32:23.029Z,53.80
2017-05-08T14:34:50.410Z,53.20
2017-05-08T14:37:17.420Z,53.90
2017-05-08T14:39:44.445Z,55.10
2017-05-08T14:42:12.215Z,54.40
2017-05-08T14:44:39.279Z,55.10
2017-05-08T14:47:06.671Z,55.50
2017-05-08T14:49:33.725Z,55.40
2017-05-08T14:52:01.179Z,53.90
2017-05-08T14:54:28.984Z,54.60
2017-05-08T14:56:56.755Z,52.40
2017-05-08T14:59:24.151Z,52.80
2017-05-08T15:01:51.197Z,51.50
2017-05-08T15:04:18.220Z,51.80
2017-05-08T15:06:45.267Z,51.30
2017-05-08T15:09:12.320Z,52.30
2017-05-08T15:11:39.723Z,50.60
2017-05-08T15:14:07.495Z,52.50
2017-05-08T15:16:34.535Z,52.90
2017-05-08T15:19:02.329Z,51.90
2017-05-08T15:21:29.369Z,49.00
2017-05-08T15:23:56.792Z,46.10
2017-05-08T15:26:23.827Z,50.10
2017-05-08T15:28:50.852Z,51.60
2017-05-08T15:31:17.876Z,52.50
2017-05-08T15:33:44.915Z,53.20
2017-05-08T15:36:12.347Z,51.00
2017-05-08T15:38:39.351Z,45.00
2017-05-08T15:41:06.390Z,39.30
2017-05-08T15:43:33.454Z,38.10
2017-05-08T15:46:00.491Z,34.80
2017-05-08T15:48:27.532Z,35.30
2017-05-08T15:50:54.584Z,35.50
2017-05-08T15:53:21.628Z,32.70
2017-05-08T15:55:48.680Z,28.20
2017-05-08T15:58:15.739Z,29.30
2017-05-08T16:00:42.770Z,31.50
2017-05-08T16:03:10.152Z,36.30
2017-05-08T16:05:38.007Z,36.10
2017-05-08T16:08:05.076Z,34.20
2017-05-08T16:10:32.718Z,35.60
2017-05-08T16:13:00.462Z,37.30
2017-05-08T16:15:27.790Z,38.30
2017-05-08T16:17:54.816Z,40.10
2017-05-08T16:20:22.835Z,41.30
2017-05-08T16:22:50.620Z,39.80
2017-05-08T16:25:18.386Z,39.70
2017-05-08T16:27:46.525Z,39.50
2017-05-08T16:30:13.934Z,39.20
2017-05-08T16:32:40.993Z,38.70
2017-05-08T16:35:08.040Z,35.00
2017-05-08T16:37:35.084Z,33.70
2017-05-08T16:40:02.471Z,36.70
2017-05-08T16:42:29.479Z,39.10
2017-05-08T16:44:56.499Z,37.60
2017-05-08T16:47:23.514Z,38.80
2017-05-08T16:49:51.280Z,37.80
2017-05-08T16:52:19.351Z,37.60
2017-05-08T16:54:47.141Z,37.90
2017-05-08T16:57:14.200Z,37.20
2017-05-08T16:59:41.245Z,37.40
2017-05-08T17:02:08.529Z,38.40
2017-05-08T17:04:35.549Z,37.50
2017-05-08T17:07:02.585Z,38.60
2017-05-08T17:09:29.988Z,38.10
2017-05-08T17:11:58.107Z,38.40
2017-05-08T17:14:25.224Z,38.90
2017-05-08T17:16:53.377Z,40.20
2017-05-08T17:19:21.151Z,40.80
2017-05-08T17:21:48.201Z,40.90
2017-05-08T17:24:16.364Z,40.60
2017-05-08T17:26:44.131Z,42.10
2017-05-08T17:29:11.181Z,43.40
2017-05-08T17:31:38.633Z,43.30
2017-05-08T17:34:06.371Z,41.60
2017-05-08T17:36:33.434Z,38.10
2017-05-08T17:39:01.593Z,34.80
2017-05-08T17:41:28.612Z,36.20
2017-05-08T17:43:55.642Z,38.30
2017-05-08T17:46:23.052Z,39.80
2017-05-08T17:48:50.849Z,40.40
2017-05-08T17:51:17.867Z,40.70
2017-05-08T17:53:46.040Z,41.60
2017-05-08T17:56:13.792Z,43.00
2017-05-08T17:58:40.807Z,43.30
2017-05-08T18:01:08.184Z,43.60
2017-05-08T18:03:35.211Z,43.30
2017-05-08T18:06:02.901Z,43.40
2017-05-08T18:08:30.362Z,43.50
2017-05-08T18:10:58.124Z,43.30
2017-05-08T18:13:25.910Z,43.60
2017-05-08T18:15:54.052Z,43.20
2017-05-08T18:18:21.225Z,42.10
2017-05-08T18:20:48.264Z,41.70
2017-05-08T18:23:16.504Z,42.10
2017-05-08T18:25:43.582Z,41.30
2017-05-08T18:28:10.621Z,43.20
2017-05-08T18:30:37.992Z,43.60
2017-05-08T18:33:04.992Z,43.50
2017-05-08T18:35:32.063Z,43.80
2017-05-08T18:37:59.457Z,44.70
2017-05-08T18:40:26.517Z,44.80
2017-05-08T18:42:53.543Z,44.10
2017-05-08T18:45:21.615Z,44.60
2017-05-08T18:47:49.435Z,45.30
2017-05-08T18:50:16.447Z,45.40
2017-05-08T18:52:43.904Z,45.70
2017-05-08T18:55:10.985Z,46.30
2017-05-08T18:57:38.178Z,45.80
2017-05-08T19:00:05.517Z,46.20
2017-05-08T19:02:32.514Z,45.70
2017-05-08T19:05:00.760Z,45.60
2017-05-08T19:07:28.110Z,45.70
2017-05-08T19:09:55.909Z,45.40
2017-05-08T19:12:22.935Z,45.80
2017-05-08T19:14:51.100Z,46.50
2017-05-08T19:17:18.125Z,46.30
2017-05-08T19:19:45.165Z,46.90
2017-05-08T19:22:12.552Z,47.60
2017-05-08T19:24:39.580Z,48.10
2017-05-08T19:27:06.592Z,49.10
2017-05-08T19:29:34.009Z,50.20
2017-05-08T19:32:01.011Z,50.40
2017-05-08T19:34:28.012Z,51.90
2017-05-08T19:36:55.708Z,53.30
2017-05-08T19:39:22.813Z,53.50
2017-05-08T19:41:49.889Z,53.90
2017-05-08T19:44:17.316Z,54.60
2017-05-08T19:46:44.499Z,55.60
2017-05-08T19:49:11.543Z,56.40
2017-05-08T19:51:39.612Z,57.20
2017-05-08T19:54:06.625Z,57.60
2017-05-08T19:56:33.689Z,58.20
2017-05-08T19:59:01.751Z,58.50
2017-05-08T20:01:28.760Z,58.90
2017-05-08T20:03:55.760Z,59.20
2017-05-08T20:06:23.177Z,59.80
2017-05-08T20:08:50.389Z,60.60
2017-05-08T20:11:17.439Z,61.40
2017-05-08T20:13:44.755Z,62.00
2017-05-08T20:16:11.757Z,62.60
2017-05-08T20:18:38.765Z,63.60
2017-05-08T20:21:06.821Z,64.00
2017-05-08T20:23:33.819Z,63.50
2017-05-08T20:26:00.858Z,63.80
2017-05-08T20:28:28.178Z,63.50
2017-05-08T20:30:55.188Z,63.40
2017-05-08T20:33:22.254Z,63.50
2017-05-08T20:35:49.624Z,63.50
2017-05-08T20:38:16.624Z,63.70
2017-05-08T20:40:43.639Z,63.80
2017-05-08T20:43:11.712Z,63.10
2017-05-08T20:45:39.476Z,64.00
2017-05-08T20:48:07.244Z,64.50
2017-05-08T20:50:35.403Z,64.00
2017-05-08T20:53:03.256Z,63.90
2017-05-08T20:55:30.273Z,64.10
2017-05-08T20:57:57.606Z,64.30
2017-05-08T21:00:24.624Z,64.00
2017-05-08T21:02:52.381Z,64.40
2017-05-08T21:05:19.705Z,63.70
2017-05-08T21:07:46.751Z,63.20
2017-05-08T21:10:14.388Z,63.40
2017-05-08T21:12:41.792Z,63.80
2017-05-08T21:15:08.808Z,64.30
2017-05-08T21:17:35.790Z,64.10
2017-05-08T21:20:03.697Z,63.90
2017-05-08T21:22:30.719Z,63.30
2017-05-08T21:24:57.800Z,63.60
2017-05-08T21:27:25.219Z,63.30
2017-05-08T21:29:52.265Z,63.70
2017-05-08T21:32:20.023Z,63.70
2017-05-08T21:34:48.364Z,64.20
2017-05-08T21:37:15.396Z,63.90
2017-05-08T21:39:42.445Z,64.20
2017-05-08T21:42:09.824Z,65.80
2017-05-08T21:44:36.858Z,66.40
2017-05-08T21:47:03.908Z,66.30
2017-05-08T21:49:31.239Z,67.10
2017-05-08T21:51:58.563Z,66.60
2017-05-08T21:54:26.321Z,67.00
2017-05-08T21:56:54.496Z,67.20
2017-05-08T21:59:22.443Z,67.60
2017-05-08T22:01:49.461Z,68.00
2017-05-08T22:04:16.872Z,68.40
2017-05-08T22:06:43.906Z,68.60
2017-05-08T22:09:10.925Z,68.60
2017-05-08T22:11:38.320Z,68.50
2017-05-08T22:14:05.342Z,67.80
2017-05-08T22:16:32.380Z,68.50
2017-05-08T22:18:59.782Z,68.30
2017-05-08T22:21:27.553Z,67.70
2017-05-08T22:23:55.315Z,67.70
2017-05-08T22:26:22.738Z,67.90
2017-05-08T22:28:49.765Z,68.00
2017-05-08T22:31:16.803Z,67.60
2017-05-08T22:33:44.471Z,67.50
2017-05-08T22:36:11.780Z,67.60
2017-05-08T22:38:38.927Z,68.20
2017-05-08T22:41:07.245Z,68.80
2017-05-08T22:43:34.449Z,68.80
2017-05-08T22:46:01.459Z,69.00
2017-05-08T22:48:28.727Z,68.40
2017-05-08T22:50:55.745Z,68.50
2017-05-08T22:53:22.756Z,69.30
2017-05-08T22:55:50.509Z,69.00
2017-05-08T22:58:17.551Z,67.80
2017-05-08T23:00:44.914Z,67.40
2017-05-08T23:03:12.671Z,68.60
2017-05-08T23:05:39.658Z,69.80
2017-05-08T23:08:06.709Z,69.90
2017-05-08T23:10:33.739Z,70.20
2017-05-08T23:13:01.875Z,69.80
2017-05-08T23:15:28.859Z,69.30
2017-05-08T23:17:56.604Z,69.60
2017-05-08T23:20:23.647Z,69.20
2017-05-08T23:22:51.146Z,68.10
2017-05-08T23:25:18.565Z,69.30
2017-05-08T23:27:45.593Z,68.80
2017-05-08T23:30:12.616Z,68.60
2017-05-08T23:32:39.665Z,68.30
2017-05-08T23:35:06.716Z,68.50
2017-05-08T23:37:34.003Z,69.00
2017-05-08T23:40:01.000Z,68.80
2017-05-08T23:42:28.011Z,68.80
2017-05-08T23:44:55.025Z,68.70
2017-05-08T23:47:22.022Z,68.10
2017-05-08T23:49:50.273Z,68.40
2017-05-08T23:52:17.276Z,68.10
2017-05-08T23:54:44.292Z,67.10
2017-05-08T23:57:11.296Z,67.00
2017-05-08T23:59:38.364Z,67.20
